Time;durP1;ratioP1;P1;durP2;ratioP2;P2;SDS_P1;SDS_P2;PMS_P1;PMS_P2;Temp;Humidity;BMP_temperature;BMP_pressure;BME280_temperature;BME280_humidity;BME280_pressure;Samples;Min_cycle;Max_cycle;Signal;HPM_P1;HPM_P2
2021/03/18 00:00:40;;;;;;;1.00;0.90;;;15.30;68.10;;;;;;5042482;28;20029;-36
2021/03/18 00:03:06;;;;;;;1.25;1.10;;;15.30;68.20;;;;;;5079350;28;20040;-36
2021/03/18 00:05:32;;;;;;;2.30;1.20;;;15.30;68.30;;;;;;5082060;28;20056;-36
2021/03/18 00:07:59;;;;;;;2.50;1.10;;;15.30;68.30;;;;;;5082277;28;20527;-36
2021/03/18 00:10:25;;;;;;;1.10;1.00;;;15.30;68.20;;;;;;5082303;28;20092;-35
2021/03/18 00:12:51;;;;;;;2.30;1.10;;;15.30;68.20;;;;;;5082321;28;20049;-36
2021/03/18 00:15:18;;;;;;;2.40;0.98;;;15.30;68.50;;;;;;5082186;28;20037;-36
2021/03/18 00:17:44;;;;;;;1.47;1.03;;;15.30;68.40;;;;;;5064521;28;20029;-36
2021/03/18 00:20:12;;;;;;;1.83;1.10;;;15.30;68.00;;;;;;5085075;28;20028;-36
2021/03/18 00:22:42;;;;;;;1.40;1.17;;;15.30;67.90;;;;;;5038806;28;20033;-36
2021/03/18 00:25:12;;;;;;;1.98;1.30;;;15.30;68.00;;;;;;5065339;28;20103;-36
2021/03/18 00:27:40;;;;;;;1.60;1.17;;;15.30;68.20;;;;;;5082240;28;20029;-36
2021/03/18 00:30:07;;;;;;;1.70;1.27;;;15.30;68.10;;;;;;5085591;28;20056;-36
2021/03/18 00:32:34;;;;;;;1.40;0.90;;;15.30;67.90;;;;;;5071531;28;20032;-36
2021/03/18 00:35:00;;;;;;;1.08;0.80;;;15.30;67.90;;;;;;5065197;28;20032;-35
2021/03/18 00:37:26;;;;;;;1.38;1.00;;;15.30;67.90;;;;;;5065260;28;20041;-36
2021/03/18 00:39:55;;;;;;;1.42;1.00;;;15.30;68.00;;;;;;5065133;28;20029;-36
2021/03/18 00:42:22;;;;;;;1.00;0.90;;;15.30;67.90;;;;;;5065100;28;20027;-36
2021/03/18 00:44:49;;;;;;;1.23;1.10;;;15.30;67.80;;;;;;5058655;28;20029;-36
2021/03/18 00:47:15;;;;;;;1.48;1.30;;;15.30;67.90;;;;;;5045096;28;20025;-36
2021/03/18 00:49:41;;;;;;;1.40;1.10;;;15.30;67.90;;;;;;5045172;28;20380;-35
2021/03/18 00:52:07;;;;;;;1.35;1.10;;;15.30;67.80;;;;;;5044868;28;20029;-36
2021/03/18 00:54:33;;;;;;;1.63;1.10;;;15.30;67.90;;;;;;5027220;28;20112;-35
2021/03/18 00:56:59;;;;;;;1.50;1.17;;;15.30;68.80;;;;;;5045212;28;20029;-36
2021/03/18 00:59:25;;;;;;;1.20;1.00;;;15.30;68.00;;;;;;5045008;28;20055;-36
2021/03/18 01:01:52;;;;;;;1.30;1.10;;;15.30;67.90;;;;;;5061183;28;20031;-36
2021/03/18 01:04:18;;;;;;;1.77;1.10;;;15.30;67.90;;;;;;5079305;28;20032;-36
2021/03/18 01:06:44;;;;;;;1.60;1.35;;;15.30;68.20;;;;;;5064804;28;20025;-36
2021/03/18 01:09:10;;;;;;;1.20;1.10;;;15.30;68.00;;;;;;5064740;28;20029;-36
2021/03/18 01:11:38;;;;;;;1.20;1.10;;;15.30;68.00;;;;;;5064503;28;20021;-36
2021/03/18 01:14:06;;;;;;;1.27;1.00;;;15.30;67.90;;;;;;5084663;28;20688;-36
2021/03/18 01:16:39;;;;;;;1.13;0.93;;;15.30;67.80;;;;;;5084480;28;20024;-36
2021/03/18 01:19:07;;;;;;;1.38;1.20;;;15.30;67.90;;;;;;5066794;28;20115;-36
2021/03/18 01:21:38;;;;;;;1.35;1.05;;;15.30;67.80;;;;;;5080959;28;20025;-36
2021/03/18 01:24:05;;;;;;;1.17;1.08;;;15.30;67.70;;;;;;5064339;28;20029;-36
2021/03/18 01:26:32;;;;;;;1.35;1.20;;;15.30;67.70;;;;;;5071804;28;20032;-36
2021/03/18 01:28:58;;;;;;;1.30;1.13;;;15.30;67.70;;;;;;5084553;28;20033;-36
2021/03/18 01:31:24;;;;;;;0.87;0.80;;;15.30;67.60;;;;;;5062072;28;20752;-36
2021/03/18 01:33:50;;;;;;;1.25;1.15;;;15.30;67.50;;;;;;5046537;28;20029;-36
2021/03/18 01:36:16;;;;;;;1.40;1.30;;;15.30;67.60;;;;;;5056038;28;20052;-36
2021/03/18 01:38:46;;;;;;;1.60;1.02;;;15.30;67.60;;;;;;5062904;28;20083;-36
2021/03/18 01:41:13;;;;;;;1.52;1.17;;;15.30;67.60;;;;;;5064248;28;20091;-36
2021/03/18 01:43:39;;;;;;;1.20;1.08;;;15.30;67.50;;;;;;5070467;28;20032;-36
2021/03/18 01:46:05;;;;;;;1.13;1.03;;;15.30;67.50;;;;;;5083773;28;20058;-36
2021/03/18 01:48:32;;;;;;;1.98;1.00;;;15.30;67.50;;;;;;5065854;28;20028;-37
2021/03/18 01:50:59;;;;;;;1.40;1.20;;;15.30;67.50;;;;;;5083983;28;20033;-36
2021/03/18 01:53:25;;;;;;;1.13;1.00;;;15.30;67.50;;;;;;5046916;28;20469;-36
2021/03/18 01:55:52;;;;;;;1.63;1.30;;;15.30;67.50;;;;;;5061836;28;20028;-36
2021/03/18 01:58:18;;;;;;;;;;;15.30;68.00;;;;;;5044338;28;20049;-36
2021/03/18 02:00:48;;;;;;;1.30;1.10;;;15.30;67.50;;;;;;5043888;28;19920;-36
2021/03/18 02:03:14;;;;;;;2.25;1.30;;;15.30;67.90;;;;;;5061610;28;20077;-36
2021/03/18 02:05:42;;;;;;;1.35;1.05;;;15.30;67.80;;;;;;5062055;28;20029;-36
2021/03/18 02:08:08;;;;;;;1.60;1.20;;;15.30;67.70;;;;;;5063596;28;20051;-36
2021/03/18 02:10:35;;;;;;;1.20;1.00;;;15.30;67.60;;;;;;5063758;28;20041;-36
2021/03/18 02:13:02;;;;;;;1.83;1.20;;;15.30;67.60;;;;;;5063329;28;20045;-36
2021/03/18 02:15:40;;;;;;;1.27;1.08;;;15.30;67.50;;;;;;5062149;28;20021;-36
2021/03/18 02:18:28;;;;;;;1.33;1.13;;;15.30;67.50;;;;;;5062494;28;20036;-36
2021/03/18 02:21:32;;;;;;;2.90;1.20;;;15.30;67.50;;;;;;5063396;28;20055;-36
2021/03/18 02:24:03;;;;;;;1.33;1.08;;;15.30;67.40;;;;;;5043325;28;20113;-36
2021/03/18 02:26:57;;;;;;;1.50;1.30;;;15.30;67.50;;;;;;5050513;28;20021;-36
2021/03/18 02:29:32;;;;;;;2.88;1.27;;;15.30;67.50;;;;;;5063270;28;20092;-36
2021/03/18 02:32:07;;;;;;;1.52;1.30;;;15.30;67.50;;;;;;5072383;28;20016;-36
2021/03/18 02:34:46;;;;;;;1.95;1.40;;;15.30;67.50;;;;;;5075029;28;20045;-36
2021/03/18 02:37:14;;;;;;;1.55;1.40;;;15.30;67.50;;;;;;5034737;28;20040;-36
2021/03/18 02:39:50;;;;;;;1.67;1.40;;;15.30;67.50;;;;;;5025656;28;20029;-36
2021/03/18 02:42:21;;;;;;;2.42;1.40;;;15.30;67.50;;;;;;5009148;28;20026;-36
2021/03/18 02:44:51;;;;;;;1.55;1.20;;;15.30;67.50;;;;;;5025397;28;20464;-36
2021/03/18 02:47:17;;;;;;;1.75;1.27;;;15.30;67.50;;;;;;5042991;28;20052;-36
2021/03/18 02:49:44;;;;;;;1.85;1.20;;;15.30;67.60;;;;;;5025414;28;20053;-36
2021/03/18 02:52:12;;;;;;;1.83;1.30;;;15.30;67.90;;;;;;5042920;28;20076;-36
2021/03/18 02:54:38;;;;;;;2.08;1.25;;;15.30;67.70;;;;;;5043004;28;20060;-35
2021/03/18 02:57:05;;;;;;;1.50;1.40;;;15.30;67.80;;;;;;5025249;28;20037;-36
2021/03/18 02:59:33;;;;;;;1.20;1.10;;;15.30;67.80;;;;;;5042908;28;20474;-36
2021/03/18 03:02:00;;;;;;;1.60;1.40;;;15.30;67.80;;;;;;5057983;28;20039;-36
2021/03/18 03:04:27;;;;;;;1.75;1.55;;;15.30;67.60;;;;;;5048476;28;20070;-36
2021/03/18 03:06:53;;;;;;;1.98;1.40;;;15.30;67.70;;;;;;5064729;28;20062;-36
2021/03/18 03:09:19;;;;;;;1.90;1.65;;;15.30;67.50;;;;;;5064767;28;20115;-36
2021/03/18 03:11:45;;;;;;;1.60;1.30;;;15.30;67.60;;;;;;5064649;28;20032;-36
2021/03/18 03:14:11;;;;;;;1.90;1.70;;;15.30;67.50;;;;;;5048165;28;20100;-36
2021/03/18 03:16:37;;;;;;;1.90;1.70;;;15.30;67.50;;;;;;5056958;28;20133;-36
2021/03/18 03:19:05;;;;;;;1.60;1.42;;;15.30;67.40;;;;;;5028490;28;20049;-36
2021/03/18 03:21:31;;;;;;;;;;;15.30;67.50;;;;;;5066187;28;20033;-36
2021/03/18 03:23:57;;;;;;;2.25;1.50;;;15.30;67.30;;;;;;5064637;28;19916;-36
2021/03/18 03:26:24;;;;;;;2.30;1.63;;;15.30;67.50;;;;;;5058054;28;20025;-36
2021/03/18 03:28:50;;;;;;;2.23;1.77;;;15.30;67.40;;;;;;5044656;28;20033;-36
2021/03/18 03:31:17;;;;;;;2.15;1.90;;;15.30;67.40;;;;;;5041581;28;20269;-36
2021/03/18 03:33:43;;;;;;;2.50;2.13;;;15.30;67.60;;;;;;5042622;28;20079;-36
2021/03/18 03:36:09;;;;;;;3.22;1.65;;;15.30;67.50;;;;;;5030851;28;20025;-36
2021/03/18 03:38:35;;;;;;;1.90;1.70;;;15.30;67.50;;;;;;5042290;28;20049;-36
2021/03/18 03:41:02;;;;;;;2.40;1.70;;;15.30;67.60;;;;;;5044059;28;20033;-36
2021/03/18 03:43:28;;;;;;;3.58;1.90;;;15.30;67.70;;;;;;5062549;28;20028;-36
2021/03/18 03:45:54;;;;;;;2.35;1.70;;;15.30;67.60;;;;;;5062473;28;20049;-36
2021/03/18 03:48:21;;;;;;;2.13;1.70;;;15.30;67.80;;;;;;5062170;28;20021;-36
2021/03/18 03:50:47;;;;;;;2.00;1.80;;;15.30;67.80;;;;;;5062545;28;20040;-36
2021/03/18 03:53:40;;;;;;;2.42;2.00;;;15.30;67.80;;;;;;5064858;28;20502;-36
2021/03/18 03:56:22;;;;;;;1.98;1.77;;;15.30;67.40;;;;;;5044816;28;20025;-36
2021/03/18 03:58:59;;;;;;;2.42;1.67;;;15.30;67.50;;;;;;5030110;28;20026;-36
2021/03/18 04:01:43;;;;;;;2.20;1.88;;;15.30;67.60;;;;;;5055353;28;20024;-36
2021/03/18 04:04:20;;;;;;;2.05;1.60;;;15.30;67.50;;;;;;5068830;28;20390;-36
2021/03/18 04:06:48;;;;;;;2.23;1.80;;;15.30;67.60;;;;;;5067793;28;20113;-36
2021/03/18 04:09:16;;;;;;;2.05;1.83;;;15.30;67.60;;;;;;5068023;28;20078;-36
2021/03/18 04:11:42;;;;;;;1.90;1.80;;;15.30;68.20;;;;;;5085744;28;20040;-36
2021/03/18 04:14:09;;;;;;;2.55;1.80;;;15.30;67.40;;;;;;5051317;28;20021;-36
2021/03/18 04:16:36;;;;;;;;;;;15.30;67.60;;;;;;5068511;28;20039;-36
2021/03/18 04:19:02;;;;;;;2.03;1.80;;;15.30;67.30;;;;;;5085423;28;19908;-36
2021/03/18 04:21:29;;;;;;;2.03;1.83;;;15.30;67.40;;;;;;5048239;28;20021;-36
2021/03/18 04:23:55;;;;;;;;;;;15.30;67.50;;;;;;5048117;28;20037;-36
2021/03/18 04:26:21;;;;;;;2.20;1.80;;;15.30;67.30;;;;;;5047567;28;19951;-36
2021/03/18 04:28:47;;;;;;;2.03;1.65;;;15.30;67.40;;;;;;5047649;28;20037;-36
2021/03/18 04:31:13;;;;;;;2.50;2.05;;;15.30;67.80;;;;;;5044610;28;20045;-36
2021/03/18 04:33:39;;;;;;;2.42;2.00;;;15.30;68.00;;;;;;5048891;28;20037;-36
2021/03/18 04:36:06;;;;;;;2.70;2.00;;;15.30;67.90;;;;;;5038748;28;20029;-36
2021/03/18 04:38:32;;;;;;;2.17;1.87;;;15.30;67.80;;;;;;5030672;28;20036;-36
2021/03/18 04:40:58;;;;;;;3.13;2.22;;;15.30;67.70;;;;;;5047555;28;20024;-36
2021/03/18 04:43:25;;;;;;;2.30;2.00;;;15.30;67.80;;;;;;5047363;28;20032;-36
2021/03/18 04:45:51;;;;;;;2.17;1.75;;;15.30;67.70;;;;;;5030657;28;20051;-36
2021/03/18 04:48:17;;;;;;;1.80;1.65;;;15.30;67.60;;;;;;5047172;28;20040;-36
2021/03/18 04:50:43;;;;;;;2.05;1.67;;;15.30;67.50;;;;;;5047359;28;20021;-36
2021/03/18 04:53:11;;;;;;;2.20;2.00;;;15.30;67.60;;;;;;5048293;28;20030;-36
2021/03/18 04:55:37;;;;;;;2.38;1.60;;;15.30;67.40;;;;;;5045250;28;20510;-36
2021/03/18 04:58:08;;;;;;;2.22;1.77;;;15.30;67.40;;;;;;5027137;28;20034;-36
2021/03/18 05:00:34;;;;;;;2.20;1.67;;;15.30;67.40;;;;;;5045137;28;20029;-37
2021/03/18 05:03:02;;;;;;;1.50;1.40;;;15.30;67.30;;;;;;5062511;28;20039;-39
2021/03/18 05:05:29;;;;;;;2.15;1.83;;;15.30;67.20;;;;;;5084640;28;20056;-36
2021/03/18 05:07:55;;;;;;;;;;;15.30;67.30;;;;;;5081693;28;20008;-36
2021/03/18 05:10:23;;;;;;;1.65;1.55;;;15.30;67.00;;;;;;5084797;28;19908;-36
2021/03/18 05:12:53;;;;;;;2.17;1.70;;;15.30;67.20;;;;;;5084755;28;20087;-36
2021/03/18 05:15:19;;;;;;;1.98;1.77;;;15.30;67.30;;;;;;5066752;28;20059;-36
2021/03/18 05:17:45;;;;;;;1.83;1.67;;;15.30;67.20;;;;;;5049123;28;20465;-36
2021/03/18 05:20:14;;;;;;;2.28;2.03;;;15.30;67.30;;;;;;5067060;28;20031;-36
2021/03/18 05:22:40;;;;;;;2.00;1.77;;;15.30;67.30;;;;;;5046850;28;20048;-36
2021/03/18 05:25:08;;;;;;;2.40;1.70;;;15.30;67.30;;;;;;5064443;28;20044;-36
2021/03/18 05:27:36;;;;;;;2.20;2.00;;;15.30;67.50;;;;;;5048498;28;20098;-36
2021/03/18 05:30:04;;;;;;;2.20;1.70;;;15.30;68.00;;;;;;5044393;28;20121;-36
2021/03/18 05:32:30;;;;;;;1.83;1.48;;;15.30;67.40;;;;;;5044461;28;20116;-36
2021/03/18 05:34:56;;;;;;;1.88;1.58;;;15.30;67.50;;;;;;5047052;28;20059;-35
2021/03/18 05:37:22;;;;;;;2.40;1.80;;;15.30;67.30;;;;;;5053170;28;20496;-36
2021/03/18 05:39:48;;;;;;;2.10;1.67;;;15.30;67.30;;;;;;5043987;28;20079;-35
2021/03/18 05:42:15;;;;;;;2.65;1.92;;;15.30;67.20;;;;;;5080546;28;20115;-36
2021/03/18 05:44:41;;;;;;;1.83;1.63;;;15.30;67.20;;;;;;5066347;28;20036;-36
2021/03/18 05:47:07;;;;;;;2.05;1.75;;;15.30;67.20;;;;;;5066138;28;20875;-36
2021/03/18 05:49:34;;;;;;;3.17;2.10;;;15.30;67.20;;;;;;5083849;28;20074;-36
2021/03/18 05:52:00;;;;;;;2.10;1.90;;;15.30;67.20;;;;;;5076708;28;20029;-35
2021/03/18 05:54:26;;;;;;;3.05;1.90;;;15.30;67.20;;;;;;5045835;28;20036;-36
2021/03/18 05:56:52;;;;;;;1.90;1.77;;;15.40;67.20;;;;;;5035688;28;20029;-35
2021/03/18 05:59:19;;;;;;;2.00;1.80;;;15.30;67.20;;;;;;5009446;28;20025;-36
2021/03/18 06:01:45;;;;;;;1.90;1.70;;;15.40;67.40;;;;;;5037098;28;20025;-35
2021/03/18 06:04:11;;;;;;;2.05;1.85;;;15.30;67.30;;;;;;5063694;28;20025;-35
2021/03/18 06:06:38;;;;;;;2.50;1.80;;;15.40;67.50;;;;;;5063623;28;20059;-35
2021/03/18 06:09:07;;;;;;;2.43;1.90;;;15.30;67.50;;;;;;5062141;28;20020;-35
2021/03/18 06:11:33;;;;;;;2.20;2.00;;;15.30;67.40;;;;;;5063383;28;20032;-35
2021/03/18 06:14:00;;;;;;;1.98;1.80;;;15.30;67.30;;;;;;5063565;28;20594;-35
2021/03/18 06:16:27;;;;;;;2.35;1.90;;;15.30;67.40;;;;;;5062953;28;20116;-42
2021/03/18 06:18:53;;;;;;;2.27;2.03;;;15.30;67.50;;;;;;5063407;28;20037;-36
2021/03/18 06:21:19;;;;;;;2.20;1.90;;;15.40;67.60;;;;;;5064071;28;20027;-35
2021/03/18 06:24:01;;;;;;;2.22;2.03;;;15.40;67.60;;;;;;5045133;28;20049;-35
2021/03/18 06:26:34;;;;;;;2.47;2.28;;;15.40;67.60;;;;;;5063088;28;20048;-35
2021/03/18 06:29:00;;;;;;;2.00;1.80;;;15.40;67.60;;;;;;5063015;28;20013;-35
2021/03/18 06:31:28;;;;;;;2.20;2.00;;;15.40;67.40;;;;;;5058543;28;20107;-36
2021/03/18 06:33:55;;;;;;;2.55;2.05;;;15.40;67.30;;;;;;5025572;28;20117;-40
2021/03/18 06:36:34;;;;;;;2.95;2.15;;;15.40;67.40;;;;;;5043409;28;20021;-35
2021/03/18 06:39:07;;;;;;;2.00;1.80;;;15.40;67.20;;;;;;5042819;28;20032;-35
2021/03/18 06:41:47;;;;;;;2.55;2.30;;;15.40;67.20;;;;;;5043073;28;20026;-35
2021/03/18 06:44:25;;;;;;;2.53;1.80;;;15.40;67.20;;;;;;5048022;28;20025;-35
2021/03/18 06:46:52;;;;;;;2.88;2.20;;;15.40;67.20;;;;;;5060104;28;20512;-35
2021/03/18 06:49:19;;;;;;;2.15;1.95;;;15.40;67.30;;;;;;5063042;28;20036;-36
2021/03/18 06:51:59;;;;;;;2.20;2.00;;;15.40;67.30;;;;;;5057642;28;20044;-36
2021/03/18 06:54:26;;;;;;;2.42;1.98;;;15.40;67.40;;;;;;5027407;28;20093;-36
2021/03/18 06:56:53;;;;;;;2.30;1.98;;;15.40;67.40;;;;;;5043018;28;20095;-36
2021/03/18 06:59:23;;;;;;;2.53;2.30;;;15.40;67.50;;;;;;5042617;28;20021;-36
2021/03/18 07:02:11;;;;;;;2.60;1.83;;;15.40;67.40;;;;;;5067136;28;20020;-36
2021/03/18 07:04:48;;;;;;;1.95;1.83;;;15.40;67.30;;;;;;5082884;28;20477;-36
2021/03/18 07:07:15;;;;;;;2.65;2.13;;;15.40;67.50;;;;;;5082269;28;20091;-36
2021/03/18 07:09:42;;;;;;;2.97;2.08;;;15.40;67.60;;;;;;5082689;28;20052;-36
2021/03/18 07:12:10;;;;;;;2.40;2.20;;;15.40;67.70;;;;;;5082653;28;20045;-36
2021/03/18 07:14:41;;;;;;;2.20;2.00;;;15.40;67.70;;;;;;5064658;28;20025;-35
2021/03/18 07:17:09;;;;;;;1.95;1.80;;;15.40;67.80;;;;;;5079347;28;20036;-36
2021/03/18 07:19:34;;;;;;;;;;;15.40;67.90;;;;;;5082969;28;20043;-36
2021/03/18 07:22:01;;;;;;;2.40;2.10;;;15.40;67.90;;;;;;5075471;28;20293;-36
2021/03/18 07:24:37;;;;;;;2.05;1.85;;;15.40;67.90;;;;;;5062302;28;20039;-36
2021/03/18 07:27:11;;;;;;;2.50;1.95;;;15.40;67.80;;;;;;5050816;28;20022;-36
2021/03/18 07:29:42;;;;;;;1.77;1.63;;;15.40;67.70;;;;;;5046279;28;20033;-36
2021/03/18 07:32:09;;;;;;;2.00;1.80;;;15.40;67.70;;;;;;5046803;28;20101;-36
2021/03/18 07:34:36;;;;;;;2.13;1.70;;;15.40;67.80;;;;;;5046735;28;20025;-36
2021/03/18 07:37:03;;;;;;;2.22;2.03;;;15.40;67.60;;;;;;5046522;28;20037;-36
2021/03/18 07:39:29;;;;;;;2.00;1.80;;;15.40;67.70;;;;;;5057848;28;20052;-35
2021/03/18 07:41:56;;;;;;;2.10;1.90;;;15.40;67.60;;;;;;5046318;28;20030;-35
2021/03/18 07:44:22;;;;;;;2.25;1.83;;;15.40;67.60;;;;;;5028579;28;20119;-36
2021/03/18 07:46:49;;;;;;;2.00;1.88;;;15.40;67.50;;;;;;5028571;28;20029;-36
2021/03/18 07:49:29;;;;;;;2.10;1.90;;;15.40;67.50;;;;;;5061458;28;20059;-36
2021/03/18 07:51:59;;;;;;;2.92;2.05;;;15.40;67.40;;;;;;5066115;28;20056;-36
2021/03/18 07:54:25;;;;;;;2.30;2.03;;;15.40;67.40;;;;;;5048219;28;20021;-37
2021/03/18 07:56:56;;;;;;;2.08;1.88;;;15.40;67.40;;;;;;5054077;28;20096;-35
2021/03/18 07:59:28;;;;;;;2.65;2.25;;;15.40;67.50;;;;;;5065785;28;20029;-35
2021/03/18 08:02:09;;;;;;;1.80;1.70;;;15.50;67.60;;;;;;5074677;28;20066;-35
2021/03/18 08:04:49;;;;;;;2.25;2.05;;;15.40;67.50;;;;;;5070333;28;20115;-36
2021/03/18 08:07:46;;;;;;;2.05;1.92;;;15.50;67.60;;;;;;5086021;28;20040;-36
2021/03/18 08:10:22;;;;;;;2.35;1.95;;;15.50;67.70;;;;;;5085776;28;20367;-35
2021/03/18 08:13:03;;;;;;;2.10;1.90;;;15.50;67.80;;;;;;5085769;28;20077;-35
2021/03/18 08:15:30;;;;;;;3.40;2.17;;;15.40;67.70;;;;;;5085893;28;20029;-36
2021/03/18 08:18:13;;;;;;;2.15;1.80;;;15.50;67.50;;;;;;5085875;28;20058;-35
2021/03/18 08:20:42;;;;;;;2.35;2.03;;;15.40;67.40;;;;;;5061817;28;20055;-35
2021/03/18 08:23:37;;;;;;;2.13;1.90;;;15.40;67.30;;;;;;5069007;28;20035;-35
2021/03/18 08:26:06;;;;;;;2.42;2.20;;;15.40;67.20;;;;;;5048720;28;20037;-36
2021/03/18 08:29:10;;;;;;;2.25;2.05;;;15.40;67.40;;;;;;5045475;28;20029;-35
2021/03/18 08:31:45;;;;;;;2.20;2.00;;;15.50;67.70;;;;;;4989720;28;20040;-35
2021/03/18 08:34:11;;;;;;;2.78;2.30;;;15.50;67.90;;;;;;5003487;28;20043;-35
2021/03/18 08:36:53;;;;;;;3.13;2.40;;;15.50;67.90;;;;;;4997320;28;20095;-35
2021/03/18 08:39:44;;;;;;;2.55;2.05;;;15.50;67.80;;;;;;5002077;28;20054;-35
2021/03/18 08:42:31;;;;;;;4.43;2.30;;;15.50;67.70;;;;;;5003307;28;20037;-35
2021/03/18 08:45:05;;;;;;;2.47;2.17;;;15.50;67.70;;;;;;5003089;28;20038;-35
2021/03/18 08:47:45;;;;;;;2.38;2.10;;;15.50;67.90;;;;;;4986873;28;20030;-35
2021/03/18 08:50:35;;;;;;;2.75;2.20;;;15.50;67.90;;;;;;5002777;28;20030;-35
2021/03/18 08:53:02;;;;;;;2.53;2.28;;;15.50;68.10;;;;;;5002908;28;20034;-35
2021/03/18 08:55:42;;;;;;;2.67;2.30;;;15.50;68.30;;;;;;5002859;28;20058;-35
2021/03/18 08:58:08;;;;;;;2.53;2.03;;;15.50;68.00;;;;;;4983494;28;20086;-35
2021/03/18 09:00:35;;;;;;;2.53;1.90;;;15.50;68.10;;;;;;4983076;28;20038;-35
2021/03/18 09:03:02;;;;;;;2.37;2.17;;;15.50;68.20;;;;;;5000832;28;20062;-35
2021/03/18 09:05:28;;;;;;;2.40;2.20;;;15.50;68.30;;;;;;5030034;28;20051;-36
2021/03/18 09:07:56;;;;;;;2.55;2.00;;;15.50;68.20;;;;;;5065017;28;20025;-35
2021/03/18 09:10:26;;;;;;;3.20;2.20;;;15.50;68.20;;;;;;5067539;28;20029;-36
2021/03/18 09:12:56;;;;;;;2.90;2.25;;;15.50;68.20;;;;;;5064668;28;20045;-36
2021/03/18 09:15:33;;;;;;;3.30;2.30;;;15.50;68.20;;;;;;5064066;28;20032;-35
2021/03/18 09:18:21;;;;;;;2.33;2.13;;;15.50;68.10;;;;;;5064800;28;20027;-35
2021/03/18 09:20:57;;;;;;;;;;;15.60;68.00;;;;;;5064855;28;20088;-36
2021/03/18 09:23:26;;;;;;;2.25;1.73;;;15.50;68.20;;;;;;5067014;28;19913;-36
2021/03/18 09:25:55;;;;;;;4.00;2.53;;;15.60;68.20;;;;;;5064080;28;20044;-36
2021/03/18 09:28:21;;;;;;;2.58;2.25;;;15.50;68.30;;;;;;5064523;28;20664;-36
2021/03/18 09:30:52;;;;;;;2.90;2.40;;;15.50;68.40;;;;;;5064014;28;20509;-35
2021/03/18 09:33:26;;;;;;;2.75;2.15;;;15.60;68.40;;;;;;5026824;28;20033;-36
2021/03/18 09:35:54;;;;;;;2.60;2.38;;;15.60;68.20;;;;;;5048930;28;20036;-36
2021/03/18 09:38:22;;;;;;;2.90;2.08;;;15.60;68.10;;;;;;5031069;28;20029;-37
2021/03/18 09:40:48;;;;;;;2.30;1.90;;;15.60;68.30;;;;;;5043791;28;20031;-38
2021/03/18 09:43:15;;;;;;;2.35;2.15;;;15.60;68.40;;;;;;5044240;28;20037;-36
2021/03/18 09:45:47;;;;;;;;;;;15.60;68.40;;;;;;5049335;28;20033;-36
2021/03/18 09:48:21;;;;;;;2.47;2.20;;;15.60;68.80;;;;;;5064112;28;20671;-36
2021/03/18 09:50:47;;;;;;;3.00;2.20;;;15.60;68.70;;;;;;5046886;28;20037;-36
2021/03/18 09:53:13;;;;;;;2.50;1.90;;;15.60;68.70;;;;;;5063987;28;20049;-36
2021/03/18 09:55:40;;;;;;;2.85;2.35;;;15.60;68.70;;;;;;5063388;28;20025;-36
2021/03/18 09:58:15;;;;;;;2.25;2.05;;;15.60;68.60;;;;;;5026279;28;20022;-36
2021/03/18 10:00:41;;;;;;;2.53;2.10;;;15.60;68.50;;;;;;5043558;28;20037;-35
2021/03/18 10:03:08;;;;;;;2.47;2.00;;;15.60;68.40;;;;;;5043796;28;20063;-35
2021/03/18 10:05:34;;;;;;;2.33;2.10;;;15.60;68.20;;;;;;5043902;28;20037;-35
2021/03/18 10:08:01;;;;;;;2.25;2.05;;;15.60;68.20;;;;;;5043627;28;20021;-35
2021/03/18 10:10:27;;;;;;;2.30;2.00;;;15.70;68.40;;;;;;5043144;28;20061;-35
2021/03/18 10:12:54;;;;;;;2.75;1.77;;;15.60;68.30;;;;;;5043322;28;20058;-36
2021/03/18 10:15:20;;;;;;;2.63;2.03;;;15.60;68.20;;;;;;5025909;28;20044;-36
2021/03/18 10:17:47;;;;;;;2.35;2.13;;;15.60;68.20;;;;;;5043860;28;20022;-36
2021/03/18 10:20:46;;;;;;;2.10;1.90;;;15.60;68.20;;;;;;5025523;28;20026;-36
2021/03/18 10:23:12;;;;;;;1.65;1.42;;;15.60;68.10;;;;;;4946423;29;20042;-36
2021/03/18 10:25:39;;;;;;;2.38;1.90;;;15.60;68.30;;;;;;4962528;28;20043;-36
2021/03/18 10:28:10;;;;;;;2.00;1.80;;;15.60;68.30;;;;;;4982090;28;20023;-35
2021/03/18 10:30:43;;;;;;;2.05;1.88;;;15.70;68.40;;;;;;4981483;28;20055;-36
2021/03/18 10:33:13;;;;;;;2.15;1.95;;;15.70;68.50;;;;;;5000524;28;20066;-35
2021/03/18 10:35:42;;;;;;;2.08;1.88;;;15.70;68.50;;;;;;4993407;28;20102;-35
2021/03/18 10:38:11;;;;;;;2.30;2.10;;;15.70;68.60;;;;;;4962279;29;20081;-35
2021/03/18 10:40:40;;;;;;;2.17;1.98;;;15.70;68.70;;;;;;4946463;29;20176;-36
2021/03/18 10:43:24;;;;;;;2.10;1.90;;;15.70;68.70;;;;;;4946493;29;20047;-35
2021/03/18 10:45:54;;;;;;;4.05;2.03;;;15.70;68.40;;;;;;4962160;28;20091;-36
2021/03/18 10:48:23;;;;;;;1.92;1.80;;;15.70;68.40;;;;;;4962411;29;20044;-35
2021/03/18 10:50:49;;;;;;;1.88;1.77;;;15.70;68.50;;;;;;4962176;29;20027;-35
2021/03/18 10:53:15;;;;;;;2.08;1.80;;;15.70;68.40;;;;;;4979175;28;20031;-35
2021/03/18 10:55:44;;;;;;;2.20;2.00;;;15.70;68.50;;;;;;4965226;28;20026;-35
2021/03/18 10:58:15;;;;;;;2.25;2.00;;;15.70;68.40;;;;;;5001199;28;20123;-36
2021/03/18 11:00:41;;;;;;;2.38;2.13;;;15.70;68.40;;;;;;5062612;28;20032;-37
2021/03/18 11:03:08;;;;;;;2.13;1.92;;;15.70;68.40;;;;;;5043805;28;20254;-35
2021/03/18 11:05:45;;;;;;;1.73;1.63;;;15.70;68.40;;;;;;5042850;28;20045;-35
2021/03/18 11:08:12;;;;;;;2.20;1.77;;;15.70;68.30;;;;;;5044513;28;20028;-35
2021/03/18 11:10:46;;;;;;;2.45;1.90;;;15.70;68.20;;;;;;5080090;28;20149;-35
2021/03/18 11:13:17;;;;;;;3.10;1.73;;;15.70;68.30;;;;;;5082694;28;20061;-36
2021/03/18 11:15:59;;;;;;;3.15;1.92;;;15.70;69.10;;;;;;5082909;28;20029;-36
2021/03/18 11:18:35;;;;;;;2.55;2.15;;;15.70;68.30;;;;;;5082876;28;20028;-36
2021/03/18 11:21:03;;;;;;;2.30;1.88;;;15.70;68.30;;;;;;5082601;28;20032;-35
2021/03/18 11:23:36;;;;;;;2.17;1.85;;;15.70;68.40;;;;;;5063226;28;20036;-35
2021/03/18 11:26:05;;;;;;;2.10;1.90;;;15.70;68.40;;;;;;5058971;28;20033;-36
2021/03/18 11:28:31;;;;;;;2.10;1.90;;;15.70;68.40;;;;;;5042577;28;20045;-36
2021/03/18 11:30:57;;;;;;;2.47;1.92;;;15.70;68.40;;;;;;5043714;28;20041;-35
2021/03/18 11:33:31;;;;;;;1.92;1.60;;;15.70;68.40;;;;;;5049834;28;20057;-36
2021/03/18 11:35:57;;;;;;;1.73;1.63;;;15.70;68.40;;;;;;5048280;28;20032;-36
2021/03/18 11:38:23;;;;;;;2.10;1.90;;;15.80;68.40;;;;;;5061299;28;20067;-36
2021/03/18 11:40:49;;;;;;;1.80;1.70;;;15.70;68.30;;;;;;5062440;28;20025;-37
2021/03/18 11:43:16;;;;;;;2.10;1.90;;;15.80;68.40;;;;;;5044223;28;20051;-36
2021/03/18 11:45:42;;;;;;;2.47;1.95;;;15.80;68.40;;;;;;5062328;28;20045;-36
2021/03/18 11:48:08;;;;;;;2.38;1.70;;;15.80;68.40;;;;;;5062384;28;20025;-35
2021/03/18 11:50:35;;;;;;;1.80;1.60;;;15.80;68.50;;;;;;5062454;28;20033;-35
2021/03/18 11:53:01;;;;;;;2.10;1.90;;;15.80;68.60;;;;;;5060232;28;20349;-35
2021/03/18 11:55:27;;;;;;;2.08;1.88;;;15.80;68.60;;;;;;5062421;28;20029;-35
2021/03/18 11:58:01;;;;;;;1.95;1.80;;;15.80;68.50;;;;;;5062264;28;20029;-35
2021/03/18 12:00:31;;;;;;;2.10;1.90;;;15.80;68.60;;;;;;5062442;28;20405;-35
2021/03/18 12:02:58;;;;;;;2.20;1.73;;;15.80;68.60;;;;;;5044753;28;20053;-35
2021/03/18 12:05:24;;;;;;;1.77;1.53;;;15.80;68.50;;;;;;5024623;28;20042;-35
2021/03/18 12:07:51;;;;;;;1.85;1.75;;;15.80;68.60;;;;;;5024424;28;20534;-35
2021/03/18 12:10:17;;;;;;;2.55;1.75;;;15.80;68.60;;;;;;5024366;28;20036;-35
2021/03/18 12:12:43;;;;;;;2.03;1.83;;;15.80;69.30;;;;;;5024187;28;20034;-36
2021/03/18 12:15:10;;;;;;;2.28;1.70;;;15.80;68.50;;;;;;5043540;28;20025;-35
2021/03/18 12:17:37;;;;;;;1.75;1.65;;;15.80;68.60;;;;;;5045722;28;20032;-35
2021/03/18 12:20:06;;;;;;;1.90;1.77;;;15.80;68.50;;;;;;5045814;28;20029;-35
2021/03/18 12:22:32;;;;;;;2.08;1.77;;;15.80;68.50;;;;;;5057074;28;20025;-35
2021/03/18 12:24:58;;;;;;;1.60;1.50;;;15.80;68.50;;;;;;5065403;28;20043;-35
2021/03/18 12:27:24;;;;;;;2.17;1.60;;;15.80;68.50;;;;;;5050796;28;20025;-35
2021/03/18 12:29:50;;;;;;;2.45;1.98;;;15.80;68.50;;;;;;5045519;28;20029;-35
2021/03/18 12:32:17;;;;;;;2.85;1.50;;;15.80;68.50;;;;;;5068772;28;20503;-35
2021/03/18 12:34:43;;;;;;;1.92;1.77;;;15.80;68.40;;;;;;5085664;28;20024;-35
2021/03/18 12:37:09;;;;;;;1.88;1.70;;;15.90;68.50;;;;;;5081726;28;20055;-35
2021/03/18 12:39:35;;;;;;;1.92;1.73;;;15.90;68.60;;;;;;5054874;28;20029;-35
2021/03/18 12:42:01;;;;;;;1.95;1.77;;;15.90;68.70;;;;;;5064909;28;20555;-36
2021/03/18 12:44:28;;;;;;;2.25;1.95;;;15.90;68.50;;;;;;5065290;28;20063;-35
2021/03/18 12:46:54;;;;;;;1.95;1.77;;;15.90;68.60;;;;;;5065300;28;20021;-35
2021/03/18 12:49:20;;;;;;;2.05;1.75;;;15.90;68.50;;;;;;5065213;28;20037;-35
2021/03/18 12:51:46;;;;;;;2.15;1.70;;;15.90;68.50;;;;;;5060040;28;20026;-35
2021/03/18 12:54:13;;;;;;;1.90;1.55;;;15.90;68.50;;;;;;5044793;28;20021;-36
2021/03/18 12:56:39;;;;;;;2.20;2.00;;;15.90;68.50;;;;;;5045203;28;20120;-36
2021/03/18 12:59:05;;;;;;;2.22;2.03;;;15.90;68.60;;;;;;5045138;28;20028;-36